createdAt,value
2023-01-26T00:00:22.509Z,1.80
2023-01-26T00:02:50.737Z,1.80
2023-01-26T00:05:18.989Z,1.80
2023-01-26T00:07:47.238Z,1.90
2023-01-26T00:10:16.135Z,1.90
2023-01-26T00:12:44.364Z,1.90
2023-01-26T00:15:13.947Z,1.90
2023-01-26T00:17:42.162Z,1.90
2023-01-26T00:20:12.059Z,2.00
2023-01-26T00:22:40.475Z,2.00
2023-01-26T00:25:11.867Z,2.00
2023-01-26T00:27:40.002Z,2.00
2023-01-26T00:30:10.073Z,2.00
2023-01-26T00:32:39.997Z,2.00
2023-01-26T00:35:08.978Z,2.00
2023-01-26T00:37:37.767Z,2.00
2023-01-26T00:40:06.757Z,2.00
2023-01-26T00:42:34.965Z,2.10
2023-01-26T00:45:06.522Z,2.10
2023-01-26T00:47:34.772Z,2.10
2023-01-26T00:50:04.611Z,2.10
2023-01-26T00:52:32.931Z,2.10
2023-01-26T00:55:01.115Z,2.10
2023-01-26T00:57:29.363Z,2.00
2023-01-26T00:59:58.107Z,2.00
2023-01-26T01:02:26.416Z,2.00
2023-01-26T01:04:54.743Z,2.10
2023-01-26T01:07:24.383Z,2.10
2023-01-26T01:09:52.536Z,2.10
2023-01-26T01:12:20.694Z,2.10
2023-01-26T01:14:49.107Z,2.10
2023-01-26T01:17:17.222Z,2.10
2023-01-26T01:19:47.025Z,2.10
2023-01-26T01:22:15.143Z,2.10
2023-01-26T01:24:44.788Z,2.00
2023-01-26T01:27:12.932Z,2.10
2023-01-26T01:29:41.187Z,2.10
2023-01-26T01:32:09.385Z,2.10
2023-01-26T01:34:37.596Z,2.10
2023-01-26T01:37:06.770Z,2.10
2023-01-26T01:39:34.933Z,2.10
2023-01-26T01:42:04.525Z,2.10
2023-01-26T01:44:32.673Z,2.10
2023-01-26T01:47:03.958Z,2.20
2023-01-26T01:49:35.624Z,2.10
2023-01-26T01:52:10.512Z,2.10
2023-01-26T01:54:42.242Z,2.20
2023-01-26T01:57:27.802Z,2.20
2023-01-26T02:00:01.219Z,2.20
2023-01-26T02:02:31.924Z,2.30
2023-01-26T02:05:05.325Z,2.20
2023-01-26T02:07:34.568Z,2.20
2023-01-26T02:10:22.052Z,2.30
2023-01-26T02:12:56.573Z,2.20
2023-01-26T02:15:25.033Z,2.20
2023-01-26T02:17:55.901Z,2.30
2023-01-26T02:20:30.350Z,2.30
2023-01-26T02:23:04.108Z,2.20
2023-01-26T02:25:42.642Z,2.30
2023-01-26T02:28:12.732Z,2.30
2023-01-26T02:30:41.042Z,2.30
2023-01-26T02:33:09.294Z,2.30
2023-01-26T02:35:37.617Z,2.20
2023-01-26T02:38:05.827Z,2.20
2023-01-26T02:40:44.088Z,2.20
2023-01-26T02:43:17.176Z,2.20
2023-01-26T02:45:45.832Z,2.10
2023-01-26T02:48:14.033Z,2.00
2023-01-26T02:50:43.458Z,2.10
2023-01-26T02:53:16.134Z,2.10
2023-01-26T02:55:43.297Z,2.20
2023-01-26T02:58:11.464Z,2.20
2023-01-26T03:00:42.641Z,2.20
2023-01-26T03:03:16.690Z,2.10
2023-01-26T03:05:47.726Z,2.10
2023-01-26T03:08:15.954Z,2.10
2023-01-26T03:10:47.498Z,2.10
2023-01-26T03:13:16.090Z,2.10
2023-01-26T03:15:52.747Z,2.20
2023-01-26T03:18:41.391Z,2.20
2023-01-26T03:21:31.477Z,2.10
2023-01-26T03:24:17.704Z,2.20
2023-01-26T03:27:15.493Z,2.20
2023-01-26T03:29:47.261Z,2.10
2023-01-26T03:32:16.866Z,2.20
2023-01-26T03:34:45.277Z,2.20
2023-01-26T03:37:15.771Z,2.20
2023-01-26T03:40:08.722Z,2.20
2023-01-26T03:42:57.451Z,2.20
2023-01-26T03:45:43.180Z,2.20
2023-01-26T03:48:31.501Z,2.20
2023-01-26T03:51:18.365Z,2.30
2023-01-26T03:54:04.261Z,2.30
2023-01-26T03:56:33.537Z,2.30
2023-01-26T03:59:10.085Z,2.30
2023-01-26T04:01:42.645Z,2.30
2023-01-26T04:04:36.126Z,2.30
2023-01-26T04:07:21.789Z,2.20
2023-01-26T04:09:52.168Z,2.30
2023-01-26T04:12:26.122Z,2.20
2023-01-26T04:15:36.350Z,2.20
2023-01-26T04:18:25.523Z,2.20
2023-01-26T04:21:15.875Z,2.30
2023-01-26T04:23:45.734Z,2.30
2023-01-26T04:26:14.033Z,2.30
2023-01-26T04:28:42.340Z,2.30
2023-01-26T04:31:10.699Z,2.30
2023-01-26T04:33:39.638Z,2.40
2023-01-26T04:36:11.148Z,2.40
2023-01-26T04:38:43.278Z,2.40
2023-01-26T04:41:11.853Z,2.40
2023-01-26T04:43:47.772Z,2.40
2023-01-26T04:46:16.819Z,2.30
2023-01-26T04:48:45.300Z,2.30
2023-01-26T04:51:16.860Z,2.30
2023-01-26T04:53:45.283Z,2.30
2023-01-26T04:56:21.648Z,2.30
2023-01-26T04:58:49.920Z,2.40
2023-01-26T05:01:18.566Z,2.40
2023-01-26T05:03:47.340Z,2.30
2023-01-26T05:06:16.925Z,2.30
2023-01-26T05:08:47.234Z,2.30
2023-01-26T05:11:15.621Z,2.30
2023-01-26T05:14:06.313Z,2.30
2023-01-26T05:16:57.280Z,2.30
2023-01-26T05:19:48.388Z,2.30
2023-01-26T05:22:38.260Z,2.30
2023-01-26T05:25:29.293Z,2.30
2023-01-26T05:28:05.388Z,2.30
2023-01-26T05:30:33.670Z,2.20
2023-01-26T05:33:04.920Z,2.30
2023-01-26T05:35:33.731Z,2.30
2023-01-26T05:38:03.359Z,2.30
2023-01-26T05:40:33.943Z,2.30
2023-01-26T05:43:05.388Z,2.30
2023-01-26T05:46:08.787Z,2.30
2023-01-26T05:48:41.657Z,2.30
2023-01-26T05:51:12.595Z,2.30
2023-01-26T05:53:42.295Z,2.40
2023-01-26T05:56:10.453Z,2.30
2023-01-26T05:58:44.176Z,2.30
2023-01-26T06:01:12.381Z,2.40
2023-01-26T06:03:49.149Z,2.30
2023-01-26T06:06:17.424Z,2.40
2023-01-26T06:08:52.542Z,2.30
2023-01-26T06:11:33.403Z,2.40
2023-01-26T06:14:12.052Z,2.40
2023-01-26T06:16:40.794Z,2.40
2023-01-26T06:19:11.731Z,2.50
2023-01-26T06:21:41.022Z,2.50
2023-01-26T06:24:15.071Z,2.60
2023-01-26T06:26:43.362Z,2.60
2023-01-26T06:29:12.575Z,2.60
2023-01-26T06:31:42.109Z,2.60
2023-01-26T06:34:15.990Z,2.70
2023-01-26T06:36:44.847Z,2.70
2023-01-26T06:39:21.572Z,2.70
2023-01-26T06:41:49.792Z,2.70
2023-01-26T06:44:18.631Z,2.70
2023-01-26T06:46:46.902Z,2.60
2023-01-26T06:49:16.742Z,2.60
2023-01-26T06:51:58.289Z,2.70
2023-01-26T06:54:40.876Z,2.70
2023-01-26T06:57:09.997Z,2.70
2023-01-26T06:59:46.501Z,2.60
2023-01-26T07:02:25.322Z,2.60
2023-01-26T07:04:54.294Z,2.60
2023-01-26T07:07:22.450Z,2.60
2023-01-26T07:09:51.997Z,2.60
2023-01-26T07:12:20.167Z,2.70
2023-01-26T07:14:48.423Z,2.60
2023-01-26T07:17:16.572Z,2.70
2023-01-26T07:19:45.320Z,2.70
2023-01-26T07:22:15.527Z,2.70
2023-01-26T07:24:43.741Z,2.70
2023-01-26T07:27:13.255Z,2.80
2023-01-26T07:29:43.697Z,2.70
2023-01-26T07:32:11.933Z,2.80
2023-01-26T07:34:43.188Z,2.70
2023-01-26T07:37:11.361Z,2.70
2023-01-26T07:39:39.518Z,2.70
2023-01-26T07:42:07.886Z,2.70
2023-01-26T07:45:00.754Z,2.70
2023-01-26T07:47:31.982Z,2.70
2023-01-26T07:50:00.150Z,2.70
2023-01-26T07:52:28.383Z,2.60
2023-01-26T07:54:56.568Z,2.60
2023-01-26T07:57:24.973Z,2.70
2023-01-26T07:59:53.751Z,2.70
2023-01-26T08:02:23.371Z,2.70
2023-01-26T08:04:51.554Z,2.70
2023-01-26T08:07:19.708Z,2.70
2023-01-26T08:09:47.871Z,2.80
2023-01-26T08:12:16.022Z,2.80
2023-01-26T08:14:47.075Z,2.80
2023-01-26T08:17:17.451Z,2.80
2023-01-26T08:19:49.623Z,2.90
2023-01-26T08:22:17.775Z,2.90
2023-01-26T08:24:46.031Z,2.90
2023-01-26T08:27:14.775Z,2.90
2023-01-26T08:29:43.000Z,2.90
2023-01-26T08:32:11.218Z,3.00
2023-01-26T08:34:39.672Z,3.00
2023-01-26T08:37:09.176Z,3.10
2023-01-26T08:39:37.433Z,3.10
2023-01-26T08:42:05.668Z,3.10
2023-01-26T08:44:33.816Z,3.20
2023-01-26T08:47:02.002Z,3.20
2023-01-26T08:49:32.648Z,3.20
2023-01-26T08:52:00.874Z,3.30
2023-01-26T08:54:30.738Z,3.30
2023-01-26T08:57:04.960Z,3.30
2023-01-26T08:59:33.117Z,3.30
2023-01-26T09:02:01.351Z,3.30
2023-01-26T09:04:29.879Z,3.40
2023-01-26T09:06:58.018Z,3.30
2023-01-26T09:09:26.412Z,3.30
2023-01-26T09:12:04.796Z,3.40
2023-01-26T09:14:32.944Z,3.30
2023-01-26T09:17:01.153Z,3.40
2023-01-26T09:19:31.131Z,3.30
2023-01-26T09:21:59.473Z,3.30
2023-01-26T09:24:27.852Z,3.30
2023-01-26T09:26:57.432Z,3.30
2023-01-26T09:29:29.269Z,3.30
2023-01-26T09:31:57.586Z,3.20
2023-01-26T09:34:26.074Z,3.20
2023-01-26T09:36:54.223Z,3.20
2023-01-26T09:39:22.528Z,3.20
2023-01-26T09:42:19.144Z,3.20
2023-01-26T09:45:01.679Z,3.30
2023-01-26T09:47:39.743Z,3.30
2023-01-26T09:50:15.433Z,3.30
2023-01-26T09:52:53.597Z,3.30
2023-01-26T09:55:24.820Z,3.30
2023-01-26T09:57:58.014Z,3.40
2023-01-26T10:00:29.509Z,3.40
2023-01-26T10:03:10.037Z,3.40
2023-01-26T10:05:43.196Z,3.40
2023-01-26T10:08:14.311Z,3.50
2023-01-26T10:10:46.211Z,3.50
2023-01-26T10:13:17.903Z,3.50
2023-01-26T10:15:49.648Z,3.50
2023-01-26T10:18:22.406Z,3.50
2023-01-26T10:20:54.234Z,3.60
2023-01-26T10:23:25.724Z,3.60
2023-01-26T10:25:57.468Z,3.60
2023-01-26T10:28:30.215Z,3.60
2023-01-26T10:30:59.069Z,3.60
2023-01-26T10:33:34.494Z,3.60
2023-01-26T10:36:07.174Z,3.60
2023-01-26T10:38:43.669Z,3.60
2023-01-26T10:41:29.349Z,3.60
2023-01-26T10:44:00.536Z,3.50
2023-01-26T10:46:34.650Z,3.40
2023-01-26T10:49:04.905Z,3.40
2023-01-26T10:51:35.037Z,3.30
2023-01-26T10:54:24.735Z,3.30
2023-01-26T10:56:56.658Z,3.40
2023-01-26T10:59:32.055Z,3.50
2023-01-26T11:02:02.946Z,3.50
2023-01-26T11:04:31.449Z,3.50
2023-01-26T11:07:26.517Z,3.50
2023-01-26T11:09:54.856Z,3.50
2023-01-26T11:12:26.497Z,3.60
2023-01-26T11:15:04.145Z,3.60
2023-01-26T11:17:37.180Z,3.60
2023-01-26T11:20:23.398Z,3.60
2023-01-26T11:22:59.908Z,3.60
2023-01-26T11:25:35.796Z,3.60
2023-01-26T11:28:22.275Z,3.60
2023-01-26T11:31:03.668Z,3.70
2023-01-26T11:33:39.670Z,3.70
2023-01-26T11:36:16.992Z,3.70
2023-01-26T11:38:53.596Z,3.80
2023-01-26T11:41:39.393Z,3.90
2023-01-26T11:44:39.595Z,3.90
2023-01-26T11:47:30.168Z,3.90
2023-01-26T11:50:18.937Z,3.90
2023-01-26T11:53:00.101Z,3.90
2023-01-26T11:55:39.112Z,3.80
2023-01-26T11:58:24.418Z,3.80
2023-01-26T12:00:56.104Z,3.80
2023-01-26T12:03:31.708Z,3.80
2023-01-26T12:06:06.674Z,3.80
2023-01-26T12:08:41.005Z,3.70
2023-01-26T12:11:26.428Z,3.70
2023-01-26T12:14:02.371Z,3.70
2023-01-26T12:16:39.542Z,3.70
2023-01-26T12:19:16.731Z,3.70
2023-01-26T12:21:46.585Z,3.60
2023-01-26T12:24:48.453Z,3.60
2023-01-26T12:27:17.760Z,3.60
2023-01-26T12:29:53.453Z,3.60
2023-01-26T12:32:22.751Z,3.60
2023-01-26T12:34:52.481Z,3.60
2023-01-26T12:37:42.408Z,3.60
2023-01-26T12:40:23.307Z,3.50
2023-01-26T12:43:01.984Z,3.50
2023-01-26T12:45:33.753Z,3.50
2023-01-26T12:48:09.613Z,3.50
2023-01-26T12:50:42.661Z,3.40
2023-01-26T12:53:15.755Z,3.50
2023-01-26T12:55:48.348Z,3.50
2023-01-26T12:58:22.444Z,3.40
2023-01-26T13:00:58.441Z,3.40
2023-01-26T13:03:32.140Z,3.40
2023-01-26T13:06:03.332Z,3.40
2023-01-26T13:08:51.575Z,3.40
2023-01-26T13:11:48.370Z,3.40
2023-01-26T13:14:34.753Z,3.30
2023-01-26T13:17:36.450Z,3.30
2023-01-26T13:20:23.869Z,3.20
2023-01-26T13:22:53.771Z,3.20
2023-01-26T13:25:31.331Z,3.30
2023-01-26T13:28:01.553Z,3.30
2023-01-26T13:30:44.368Z,3.30
2023-01-26T13:33:16.745Z,3.30
2023-01-26T13:35:46.809Z,3.30
2023-01-26T13:38:22.034Z,3.30
2023-01-26T13:40:51.433Z,3.30
2023-01-26T13:43:28.975Z,3.30
2023-01-26T13:46:04.433Z,3.20
2023-01-26T13:48:48.431Z,3.30
2023-01-26T13:51:40.465Z,3.30
2023-01-26T13:54:24.967Z,3.20
2023-01-26T13:57:04.797Z,3.30
2023-01-26T13:59:34.192Z,3.20
2023-01-26T14:02:02.694Z,3.10
2023-01-26T14:04:33.993Z,3.10
2023-01-26T14:07:06.178Z,3.10
2023-01-26T14:09:46.232Z,3.10
2023-01-26T14:12:22.873Z,3.00
2023-01-26T14:14:53.267Z,3.00
2023-01-26T14:17:30.371Z,3.00
2023-01-26T14:20:00.073Z,3.00
2023-01-26T14:22:28.736Z,2.90
2023-01-26T14:24:58.292Z,3.00
2023-01-26T14:27:35.112Z,2.90
2023-01-26T14:30:09.170Z,2.90
2023-01-26T14:32:37.667Z,2.90
2023-01-26T14:35:23.205Z,2.90
2023-01-26T14:37:51.787Z,2.90
2023-01-26T14:40:25.332Z,2.90
2023-01-26T14:42:55.431Z,3.00
2023-01-26T14:45:30.900Z,2.90
2023-01-26T14:48:02.948Z,2.90
2023-01-26T14:50:32.418Z,2.90
2023-01-26T14:53:04.130Z,2.90
2023-01-26T14:55:37.333Z,2.80
2023-01-26T14:58:15.771Z,2.90
2023-01-26T15:00:49.554Z,2.90
2023-01-26T15:03:25.852Z,2.80
2023-01-26T15:06:20.437Z,2.80
2023-01-26T15:09:04.297Z,2.80
2023-01-26T15:11:56.724Z,2.80
2023-01-26T15:14:50.327Z,2.70
2023-01-26T15:17:30.058Z,2.70
2023-01-26T15:20:00.642Z,2.70
2023-01-26T15:22:28.888Z,2.60
2023-01-26T15:25:06.911Z,2.70
2023-01-26T15:27:37.951Z,2.60
2023-01-26T15:30:08.171Z,2.70
2023-01-26T15:35:59.031Z,2.70
2023-01-26T15:38:27.197Z,2.60
2023-01-26T15:40:56.260Z,2.60
2023-01-26T15:43:26.668Z,2.60
2023-01-26T15:45:57.166Z,2.60
2023-01-26T15:48:26.937Z,2.70
2023-01-26T15:50:55.086Z,2.60
2023-01-26T15:53:25.816Z,2.60
2023-01-26T15:55:56.033Z,2.60
2023-01-26T15:58:26.325Z,2.60
2023-01-26T16:00:54.554Z,2.70
2023-01-26T16:03:25.212Z,2.70
2023-01-26T16:05:55.643Z,2.80
2023-01-26T16:08:23.848Z,2.70
2023-01-26T16:10:52.381Z,2.70
2023-01-26T16:13:20.790Z,2.70
2023-01-26T16:15:51.983Z,2.70
2023-01-26T16:18:20.673Z,2.70
2023-01-26T16:20:50.556Z,2.70
2023-01-26T16:23:21.250Z,2.60
2023-01-26T16:25:50.082Z,2.70
2023-01-26T16:28:18.649Z,2.60
2023-01-26T16:30:48.355Z,2.60
2023-01-26T16:33:21.006Z,2.60
2023-01-26T16:35:49.210Z,2.60
2023-01-26T16:38:20.392Z,2.60
2023-01-26T16:40:49.794Z,2.60
2023-01-26T16:43:24.023Z,2.70
2023-01-26T16:45:52.598Z,2.70
2023-01-26T16:48:22.822Z,2.70
2023-01-26T16:50:53.765Z,2.70
2023-01-26T16:53:25.873Z,2.70
2023-01-26T16:55:54.352Z,2.70
2023-01-26T16:58:22.987Z,2.70
2023-01-26T17:00:51.268Z,2.70
2023-01-26T17:03:21.194Z,2.70
2023-01-26T17:05:50.556Z,2.70
2023-01-26T17:08:18.922Z,2.70
2023-01-26T17:11:01.031Z,2.70
2023-01-26T17:13:31.371Z,2.60
2023-01-26T17:16:00.365Z,2.60
2023-01-26T17:18:33.397Z,2.60
2023-01-26T17:21:03.892Z,2.60
2023-01-26T17:23:32.458Z,2.60
2023-01-26T17:26:01.281Z,2.50
2023-01-26T17:28:29.517Z,2.60
2023-01-26T17:31:00.815Z,2.60
2023-01-26T17:33:31.252Z,2.60
2023-01-26T17:36:02.790Z,2.60
2023-01-26T17:38:31.255Z,2.60
2023-01-26T17:41:00.354Z,2.60
2023-01-26T17:43:28.955Z,2.70
2023-01-26T17:46:07.497Z,2.60
2023-01-26T17:48:38.554Z,2.70
2023-01-26T17:51:07.872Z,2.70
2023-01-26T17:53:39.217Z,2.70
2023-01-26T17:56:09.940Z,2.70
2023-01-26T17:58:38.530Z,2.70
2023-01-26T18:01:08.149Z,2.60
2023-01-26T18:03:41.722Z,2.60
2023-01-26T18:06:10.451Z,2.60
2023-01-26T18:08:39.501Z,2.60
2023-01-26T18:11:09.627Z,2.50
2023-01-26T18:13:38.210Z,2.50
2023-01-26T18:16:08.200Z,2.50
2023-01-26T18:18:38.558Z,2.50
2023-01-26T18:21:15.037Z,2.50
2023-01-26T18:23:45.836Z,2.60
2023-01-26T18:26:18.128Z,2.60
2023-01-26T18:28:48.994Z,2.50
2023-01-26T18:31:22.007Z,2.40
2023-01-26T18:33:51.883Z,2.50
2023-01-26T18:36:21.605Z,2.50
2023-01-26T18:38:51.771Z,2.50
2023-01-26T18:41:20.985Z,2.40
2023-01-26T18:43:52.188Z,2.40
2023-01-26T18:46:20.770Z,2.30
2023-01-26T18:48:49.070Z,2.40
2023-01-26T18:51:19.252Z,2.40
2023-01-26T18:53:47.441Z,2.40
2023-01-26T18:56:18.549Z,2.30
2023-01-26T18:58:46.848Z,2.30
2023-01-26T19:01:18.844Z,2.30
2023-01-26T19:03:47.801Z,2.30
2023-01-26T19:06:19.913Z,2.40
2023-01-26T19:08:49.092Z,2.30
2023-01-26T19:11:17.319Z,2.30
2023-01-26T19:13:48.890Z,2.30
2023-01-26T19:16:17.368Z,2.30
2023-01-26T19:18:47.941Z,2.30
2023-01-26T19:21:17.163Z,2.30
2023-01-26T19:23:46.690Z,2.30
2023-01-26T19:26:17.575Z,2.20
2023-01-26T19:28:46.705Z,2.20
2023-01-26T19:31:18.981Z,2.30
2023-01-26T19:33:51.846Z,2.20
2023-01-26T19:36:23.546Z,2.20
2023-01-26T19:38:53.250Z,2.20
2023-01-26T19:41:24.319Z,2.20
2023-01-26T19:43:52.924Z,2.20
2023-01-26T19:46:21.883Z,2.20
2023-01-26T19:48:50.380Z,2.20
2023-01-26T19:51:20.155Z,2.20
2023-01-26T19:53:50.580Z,2.20
2023-01-26T19:56:22.671Z,2.20
2023-01-26T19:58:52.268Z,2.20
2023-01-26T20:01:21.257Z,2.20
2023-01-26T20:03:51.726Z,2.20
2023-01-26T20:06:22.072Z,2.20
2023-01-26T20:08:51.156Z,2.20
2023-01-26T20:11:24.915Z,2.20
2023-01-26T20:13:56.584Z,2.20
2023-01-26T20:16:28.004Z,2.20
2023-01-26T20:18:57.041Z,2.20
2023-01-26T20:21:25.330Z,2.20
2023-01-26T20:23:55.686Z,2.20
2023-01-26T20:26:27.424Z,2.20
2023-01-26T20:28:58.287Z,2.20
2023-01-26T20:31:27.765Z,2.20
2023-01-26T20:33:58.294Z,2.20
2023-01-26T20:36:29.333Z,2.20
2023-01-26T20:38:58.313Z,2.20
2023-01-26T20:41:32.084Z,2.20
2023-01-26T20:44:02.869Z,2.20
2023-01-26T20:46:33.079Z,2.20
2023-01-26T20:49:04.701Z,2.20
2023-01-26T20:51:35.904Z,2.20
2023-01-26T20:54:06.504Z,2.20
2023-01-26T20:56:36.580Z,2.20
2023-01-26T20:59:05.435Z,2.20
2023-01-26T21:01:34.957Z,2.20
2023-01-26T21:04:03.801Z,2.10
2023-01-26T21:06:32.546Z,2.20
2023-01-26T21:09:01.807Z,2.10
2023-01-26T21:11:32.865Z,2.10
2023-01-26T21:14:02.757Z,2.10
2023-01-26T21:16:32.204Z,2.10
2023-01-26T21:19:00.415Z,2.20
2023-01-26T21:21:28.947Z,2.10
2023-01-26T21:23:57.211Z,2.20
2023-01-26T21:26:27.823Z,2.20
2023-01-26T21:28:58.406Z,2.20
2023-01-26T21:31:29.448Z,2.20
2023-01-26T21:33:58.156Z,2.30
2023-01-26T21:36:28.360Z,2.20
2023-01-26T21:38:58.108Z,2.20
2023-01-26T21:41:45.635Z,2.10
2023-01-26T21:44:16.558Z,2.10
2023-01-26T21:46:48.673Z,2.10
2023-01-26T21:49:17.403Z,2.10
2023-01-26T21:52:03.380Z,2.20
2023-01-26T21:54:31.869Z,2.20
2023-01-26T21:57:03.816Z,2.20
2023-01-26T21:59:31.343Z,2.20
2023-01-26T22:02:00.865Z,2.20
2023-01-26T22:04:31.139Z,2.20
2023-01-26T22:07:00.109Z,2.20
2023-01-26T22:09:29.997Z,2.20
2023-01-26T22:11:58.139Z,2.10
2023-01-26T22:14:26.925Z,2.10
2023-01-26T22:16:55.840Z,2.10
2023-01-26T22:19:28.666Z,2.10
2023-01-26T22:21:56.892Z,2.10
2023-01-26T22:24:25.528Z,2.10
2023-01-26T22:26:54.104Z,2.00
2023-01-26T22:29:22.617Z,2.10
2023-01-26T22:31:54.520Z,2.10
2023-01-26T22:34:23.153Z,2.10
2023-01-26T22:36:55.704Z,2.00
2023-01-26T22:39:23.893Z,2.00
2023-01-26T22:41:54.791Z,2.00
2023-01-26T22:44:23.360Z,2.10
2023-01-26T22:46:54.262Z,2.10
2023-01-26T22:49:22.446Z,2.10
2023-01-26T22:51:53.671Z,2.10
2023-01-26T22:54:22.129Z,2.00
2023-01-26T22:56:50.640Z,2.10
2023-01-26T22:59:19.070Z,2.00
2023-01-26T23:01:47.274Z,2.10
2023-01-26T23:04:15.511Z,2.10
2023-01-26T23:06:43.829Z,2.10
2023-01-26T23:09:13.420Z,2.10
2023-01-26T23:11:44.636Z,2.10
2023-01-26T23:14:12.977Z,2.10
2023-01-26T23:16:42.933Z,2.10
2023-01-26T23:19:11.240Z,2.10
2023-01-26T23:21:39.619Z,2.10
2023-01-26T23:24:08.820Z,2.10
2023-01-26T23:26:42.927Z,2.10
2023-01-26T23:29:11.266Z,2.10
2023-01-26T23:31:40.191Z,2.10
2023-01-26T23:34:10.565Z,2.20
2023-01-26T23:36:38.774Z,2.20
2023-01-26T23:39:14.206Z,2.20
2023-01-26T23:41:55.541Z,2.20
2023-01-26T23:44:24.102Z,2.30
2023-01-26T23:46:52.252Z,2.30
2023-01-26T23:49:20.506Z,2.20
2023-01-26T23:51:49.032Z,2.10
2023-01-26T23:54:19.814Z,2.00
2023-01-26T23:56:50.403Z,2.00
2023-01-26T23:59:19.997Z,2.10
